Time;durP1;ratioP1;P1;durP2;ratioP2;P2;SDS_P1;SDS_P2;PMS_P1;PMS_P2;Temp;Humidity;BMP_temperature;BMP_pressure;BME280_temperature;BME280_humidity;BME280_pressure;Samples;Min_cycle;Max_cycle;Signal;HPM_P1;HPM_P2
2024/01/17 00:00:19;;;;;;;14.33;9.57;;;0.00;45.40;;;;;;20984;6728;121499;-80
2024/01/17 00:02:52;;;;;;;17.23;11.37;;;-0.20;45.80;;;;;;20779;6713;298033;-80
2024/01/17 00:05:29;;;;;;;14.10;11.60;;;-0.10;44.60;;;;;;20794;6713;306977;-80
2024/01/17 00:08:04;;;;;;;13.07;11.67;;;-0.10;44.60;;;;;;20769;6728;306566;-79
2024/01/17 00:10:40;;;;;;;12.80;9.43;;;0.10;44.60;;;;;;20971;6728;117338;-79
2024/01/17 00:13:15;;;;;;;10.83;8.60;;;-0.10;44.50;;;;;;20904;6728;144262;-79
2024/01/17 00:15:51;;;;;;;12.20;11.00;;;-0.40;45.10;;;;;;20808;6713;275713;-79
2024/01/17 00:18:27;;;;;;;11.50;10.30;;;-0.20;45.30;;;;;;20767;6728;277800;-79
2024/01/17 00:21:03;;;;;;;10.60;8.33;;;-0.30;44.60;;;;;;20971;6728;119177;-80
2024/01/17 00:23:39;;;;;;;12.10;11.00;;;-0.30;44.70;;;;;;20676;6728;277696;-78
2024/01/17 00:26:15;;;;;;;13.32;11.35;;;-0.20;44.50;;;;;;20757;6718;306719;-79
2024/01/17 00:28:51;;;;;;;12.40;11.10;;;-0.20;44.50;;;;;;20780;6718;304528;-78
2024/01/17 00:31:26;;;;;;;11.83;10.73;;;-0.10;44.10;;;;;;20815;6718;291189;-79
2024/01/17 00:34:02;;;;;;;9.07;8.20;;;-0.10;43.70;;;;;;20837;6718;117635;-80
2024/01/17 00:36:38;;;;;;;9.57;8.67;;;-0.10;44.10;;;;;;20973;6718;117231;-80
2024/01/17 00:39:16;;;;;;;8.97;8.03;;;-0.40;44.90;;;;;;20953;6718;119394;-80
2024/01/17 00:41:49;;;;;;;12.50;11.33;;;-0.70;45.60;;;;;;20798;6718;276126;-81
2024/01/17 00:44:27;;;;;;;10.43;9.33;;;-0.60;45.80;;;;;;20798;6718;119875;-81
2024/01/17 00:47:00;;;;;;;9.50;7.90;;;-0.60;45.80;;;;;;21009;6718;120515;-80
2024/01/17 00:49:39;;;;;;;11.20;10.10;;;-0.70;46.20;;;;;;20784;6718;305425;-81
2024/01/17 00:52:15;;;;;;;9.67;8.67;;;-0.60;46.40;;;;;;20969;6718;119921;-81
2024/01/17 00:54:51;;;;;;;12.40;10.60;;;-0.40;46.10;;;;;;20540;6718;306675;-81
2024/01/17 00:57:28;;;;;;;9.33;8.33;;;-0.40;46.10;;;;;;20956;6718;119289;-81
2024/01/17 01:00:04;;;;;;;9.13;8.17;;;-0.40;45.90;;;;;;20976;6718;116689;-81
2024/01/17 01:02:43;;;;;;;12.27;10.77;;;-0.50;46.30;;;;;;20785;6717;305971;-80
2024/01/17 01:05:15;;;;;;;12.23;11.03;;;-0.30;46.60;;;;;;20713;6736;306680;-80
2024/01/17 01:07:51;;;;;;;11.98;10.98;;;0.00;46.00;;;;;;20750;6732;306483;-80
2024/01/17 01:10:26;;;;;;;11.70;9.07;;;0.30;45.10;;;;;;20954;6736;119396;-81
2024/01/17 01:13:03;;;;;;;11.60;8.87;;;0.30;45.00;;;;;;20921;6732;116904;-83
2024/01/17 01:15:37;;;;;;;12.30;11.10;;;0.10;45.50;;;;;;20719;6736;306273;-82
2024/01/17 01:18:13;;;;;;;10.23;9.10;;;0.20;46.10;;;;;;20952;6737;117356;-79
2024/01/17 01:20:49;;;;;;;10.87;8.67;;;0.20;46.10;;;;;;20955;6737;117131;-80
2024/01/17 01:23:26;;;;;;;8.47;7.67;;;0.10;46.50;;;;;;20840;6737;119181;-81
2024/01/17 01:26:00;;;;;;;10.17;8.27;;;0.00;46.80;;;;;;20983;6718;118799;-81
2024/01/17 01:28:36;;;;;;;11.03;9.93;;;0.00;47.20;;;;;;20748;6718;305511;-85
2024/01/17 01:31:12;;;;;;;11.60;10.50;;;0.00;47.10;;;;;;20787;6718;283175;-81
2024/01/17 01:33:47;;;;;;;11.67;10.37;;;0.40;46.60;;;;;;20684;6718;307881;-80
2024/01/17 01:36:23;;;;;;;10.03;9.00;;;0.70;45.70;;;;;;20944;6737;117157;-79
2024/01/17 01:38:58;;;;;;;12.30;10.63;;;0.60;45.50;;;;;;20774;6737;276118;-79
2024/01/17 01:41:34;;;;;;;9.43;8.00;;;0.60;45.60;;;;;;20927;6736;117685;-79
2024/01/17 01:44:10;;;;;;;9.43;7.70;;;0.30;46.00;;;;;;20827;6737;116971;-79
2024/01/17 01:46:46;;;;;;;10.20;9.25;;;0.30;46.00;;;;;;20746;6733;335544;-79
2024/01/17 01:49:21;;;;;;;10.05;9.15;;;0.30;45.90;;;;;;20807;6718;334787;-81
2024/01/17 01:51:57;;;;;;;9.07;7.83;;;0.50;45.20;;;;;;21034;6718;116997;-79
2024/01/17 01:54:33;;;;;;;10.63;9.53;;;0.40;45.10;;;;;;20632;6718;294608;-79
2024/01/17 01:57:09;;;;;;;11.20;10.20;;;0.50;45.20;;;;;;20757;6722;308072;-79
2024/01/17 01:59:45;;;;;;;9.83;8.87;;;0.50;45.20;;;;;;20950;6737;117353;-79
2024/01/17 02:02:23;;;;;;;16.77;9.53;;;0.40;45.40;;;;;;20917;6737;117293;-79
2024/01/17 02:04:56;;;;;;;15.00;12.60;;;0.10;46.20;;;;;;20500;6740;279191;-79
2024/01/17 02:07:32;;;;;;;14.17;10.80;;;0.10;46.20;;;;;;20890;6737;123846;-79
2024/01/17 02:10:11;;;;;;;14.27;12.83;;;0.10;46.30;;;;;;20735;6737;305751;-79
2024/01/17 02:12:44;;;;;;;15.63;14.10;;;0.30;46.00;;;;;;20724;6736;308950;-79
2024/01/17 02:15:21;;;;;;;12.93;10.83;;;0.30;46.00;;;;;;20914;6736;117643;-79
2024/01/17 02:17:57;;;;;;;16.42;13.27;;;0.30;46.00;;;;;;20765;6725;308357;-79
2024/01/17 02:20:32;;;;;;;15.43;11.40;;;0.30;46.40;;;;;;20882;6736;119161;-79
2024/01/17 02:23:21;;;;;;;11.43;10.30;;;0.30;46.60;;;;;;20925;6718;117609;-79
2024/01/17 02:25:56;;;;;;;18.80;14.83;;;0.00;46.90;;;;;;20751;6718;291653;-79
2024/01/17 02:28:32;;;;;;;14.43;11.00;;;0.20;47.30;;;;;;21013;6718;117133;-79
2024/01/17 02:31:08;;;;;;;12.67;10.20;;;0.10;47.10;;;;;;20946;6718;117613;-79
2024/01/17 02:33:44;;;;;;;16.40;14.73;;;-0.10;47.40;;;;;;20690;6718;278199;-80
2024/01/17 02:36:19;;;;;;;17.07;14.93;;;0.10;47.90;;;;;;20760;6733;307567;-79
2024/01/17 02:38:54;;;;;;;17.07;15.23;;;0.40;47.70;;;;;;20722;6745;305515;-80
2024/01/17 02:41:30;;;;;;;15.83;11.83;;;0.60;47.30;;;;;;20916;6739;118767;-78
2024/01/17 02:44:06;;;;;;;17.90;15.37;;;0.60;47.20;;;;;;20583;6751;325773;-80
2024/01/17 02:46:41;;;;;;;13.20;11.80;;;0.60;47.60;;;;;;20951;6736;117513;-80
2024/01/17 02:49:19;;;;;;;18.33;16.00;;;0.50;47.60;;;;;;20667;6736;335806;-79
2024/01/17 02:51:53;;;;;;;13.30;11.90;;;0.50;48.20;;;;;;20960;6734;117079;-79
2024/01/17 02:54:29;;;;;;;14.07;10.57;;;0.50;48.20;;;;;;20805;6734;117753;-79
2024/01/17 02:57:04;;;;;;;12.13;10.10;;;0.40;48.40;;;;;;20944;6723;117871;-80
2024/01/17 02:59:41;;;;;;;15.73;14.10;;;0.30;49.00;;;;;;20771;6723;277210;-80
2024/01/17 03:02:15;;;;;;;16.63;14.90;;;0.40;49.90;;;;;;20754;6723;307234;-79
2024/01/17 03:04:51;;;;;;;15.97;14.50;;;0.80;50.40;;;;;;20633;6723;308735;-79
2024/01/17 03:07:27;;;;;;;13.00;11.13;;;1.20;50.70;;;;;;20993;6723;117475;-79
2024/01/17 03:10:02;;;;;;;16.77;15.07;;;1.20;50.60;;;;;;20752;6723;308482;-79
2024/01/17 03:12:38;;;;;;;18.07;16.30;;;1.60;51.10;;;;;;20774;6723;291805;-80
2024/01/17 03:15:15;;;;;;;17.03;15.33;;;1.60;51.10;;;;;;20815;6723;275057;-79
2024/01/17 03:17:51;;;;;;;12.23;11.03;;;1.80;51.00;;;;;;21031;6723;117177;-79
2024/01/17 03:20:27;;;;;;;13.77;12.27;;;1.80;50.80;;;;;;21033;6723;117116;-79
2024/01/17 03:23:03;;;;;;;17.53;15.83;;;1.60;51.50;;;;;;20701;6723;307783;-79
2024/01/17 03:25:40;;;;;;;14.53;12.53;;;1.50;51.40;;;;;;20985;6722;117699;-80
2024/01/17 03:28:15;;;;;;;17.48;15.77;;;1.60;51.20;;;;;;20758;6722;306647;-80
2024/01/17 03:30:52;;;;;;;16.33;12.30;;;1.60;51.30;;;;;;20997;6722;118072;-80
2024/01/17 03:33:29;;;;;;;16.27;11.97;;;1.60;51.10;;;;;;20891;6722;117890;-79
2024/01/17 03:36:05;;;;;;;18.43;16.60;;;1.40;51.30;;;;;;20771;6722;305832;-80
2024/01/17 03:38:40;;;;;;;19.00;17.15;;;1.50;51.90;;;;;;20715;6743;305925;-80
2024/01/17 03:41:16;;;;;;;17.87;13.90;;;1.80;52.30;;;;;;20954;6728;118757;-79
2024/01/17 03:43:52;;;;;;;14.20;12.50;;;1.70;52.40;;;;;;20831;6743;117514;-80
2024/01/17 03:46:28;;;;;;;14.73;12.87;;;1.70;52.20;;;;;;20932;6743;117204;-81
2024/01/17 03:49:03;;;;;;;12.70;11.50;;;1.60;52.50;;;;;;20979;6728;117637;-81
2024/01/17 03:51:40;;;;;;;19.37;16.63;;;1.60;53.50;;;;;;20722;6743;284862;-79
2024/01/17 03:54:15;;;;;;;16.37;14.10;;;1.60;53.50;;;;;;20783;6738;117463;-79
2024/01/17 03:56:51;;;;;;;15.50;12.43;;;1.70;53.10;;;;;;20947;6738;117512;-79
2024/01/17 03:59:27;;;;;;;17.87;16.02;;;1.60;52.70;;;;;;20702;6738;326917;-79
2024/01/17 04:02:03;;;;;;;15.07;12.17;;;1.60;52.70;;;;;;20964;6720;117162;-79
2024/01/17 04:04:38;;;;;;;18.73;16.87;;;1.60;52.40;;;;;;20553;6723;309640;-79
2024/01/17 04:07:14;;;;;;;19.50;17.70;;;1.60;52.30;;;;;;20722;6734;306672;-79
2024/01/17 04:09:50;;;;;;;14.20;12.73;;;1.90;51.90;;;;;;20973;6728;117158;-76
2024/01/17 04:12:26;;;;;;;20.10;17.93;;;1.80;52.10;;;;;;20706;6743;329511;-76
2024/01/17 04:15:02;;;;;;;14.90;12.90;;;1.80;52.10;;;;;;20730;6805;118116;-76
2024/01/17 04:17:37;;;;;;;15.53;12.50;;;1.80;52.00;;;;;;20894;6749;117033;-77
2024/01/17 04:20:13;;;;;;;35.00;30.33;;;1.60;52.40;;;;;;20755;6745;294194;-77
2024/01/17 04:22:49;;;;;;;20.60;18.53;;;2.00;53.60;;;;;;20723;6749;304790;-77
2024/01/17 04:25:25;;;;;;;16.60;13.30;;;2.00;53.60;;;;;;20886;6749;119798;-77
2024/01/17 04:28:00;;;;;;;19.58;16.83;;;2.00;53.20;;;;;;20691;6749;308609;-77
2024/01/17 04:30:36;;;;;;;16.10;13.57;;;2.10;54.70;;;;;;20932;6756;117092;-77
2024/01/17 04:33:11;;;;;;;14.83;12.87;;;2.10;53.80;;;;;;20820;6756;120612;-79
2024/01/17 04:35:47;;;;;;;19.33;17.23;;;1.90;53.90;;;;;;20765;6728;277689;-78
2024/01/17 04:38:23;;;;;;;14.57;12.80;;;2.00;54.50;;;;;;20969;6728;117445;-76
2024/01/17 04:40:58;;;;;;;18.77;16.83;;;2.10;54.30;;;;;;20765;6728;281351;-77
2024/01/17 04:43:34;;;;;;;18.67;16.77;;;2.20;55.10;;;;;;20678;6728;291782;-77
2024/01/17 04:46:11;;;;;;;13.73;12.23;;;2.50;55.10;;;;;;20933;6752;120192;-77
2024/01/17 04:48:45;;;;;;;13.20;11.90;;;2.50;54.70;;;;;;20898;6749;117561;-77
2024/01/17 04:51:25;;;;;;;18.40;16.53;;;2.40;56.00;;;;;;20675;6749;331370;-77
2024/01/17 04:54:00;;;;;;;12.87;11.57;;;2.40;55.30;;;;;;20781;6749;117567;-78
2024/01/17 04:56:35;;;;;;;13.27;11.30;;;2.40;54.90;;;;;;20971;6718;117538;-77
2024/01/17 04:59:11;;;;;;;13.23;11.43;;;2.30;55.10;;;;;;20938;6718;119071;-78
2024/01/17 05:01:47;;;;;;;14.70;12.27;;;2.10;55.30;;;;;;20961;6718;119358;-77
2024/01/17 05:04:22;;;;;;;20.60;17.90;;;2.00;55.40;;;;;;20611;6718;308112;-79
2024/01/17 05:06:58;;;;;;;20.27;18.07;;;2.50;55.80;;;;;;20716;6743;301815;-85
2024/01/17 05:09:34;;;;;;;15.43;13.37;;;2.50;55.80;;;;;;20965;6728;117119;-79
2024/01/17 05:12:10;;;;;;;13.70;12.23;;;2.50;55.30;;;;;;20913;6738;117222;-78
2024/01/17 05:14:45;;;;;;;20.15;17.90;;;2.30;55.50;;;;;;20580;6743;328222;-77
2024/01/17 05:17:24;;;;;;;14.07;12.50;;;2.40;56.00;;;;;;21006;6711;120915;-77
2024/01/17 05:19:56;;;;;;;14.60;12.23;;;2.40;55.60;;;;;;21028;6726;118063;-76
2024/01/17 05:22:39;;;;;;;14.57;12.77;;;2.20;56.00;;;;;;20989;6724;117917;-76
2024/01/17 05:25:11;;;;;;;21.73;18.85;;;2.20;56.00;;;;;;20664;6741;336606;-77
2024/01/17 05:27:51;;;;;;;22.87;20.13;;;2.30;56.50;;;;;;20671;6756;335825;-76
2024/01/17 05:30:25;;;;;;;22.13;19.83;;;2.70;56.40;;;;;;20732;6735;337823;-75
2024/01/17 05:33:01;;;;;;;26.20;23.33;;;3.00;55.50;;;;;;20655;6750;278856;-76
2024/01/17 05:35:37;;;;;;;18.80;13.97;;;3.20;55.50;;;;;;20911;6740;117532;-76
2024/01/17 05:38:12;;;;;;;20.90;18.63;;;3.20;55.20;;;;;;20703;6758;334695;-77
2024/01/17 05:40:48;;;;;;;21.98;19.65;;;3.20;56.00;;;;;;20814;6728;306242;-74
2024/01/17 05:43:23;;;;;;;21.60;19.33;;;3.40;55.00;;;;;;20607;6743;338952;-78
2024/01/17 05:45:59;;;;;;;16.00;14.30;;;3.50;54.80;;;;;;20932;6738;119508;-77
2024/01/17 05:48:34;;;;;;;18.50;16.48;;;3.40;54.60;;;;;;20740;6737;281890;-75
2024/01/17 05:51:12;;;;;;;14.07;11.97;;;3.40;54.70;;;;;;20906;6743;117040;-76
2024/01/17 05:53:47;;;;;;;13.33;11.80;;;3.20;54.30;;;;;;20828;6743;117694;-76
2024/01/17 05:56:23;;;;;;;15.03;11.20;;;2.90;54.30;;;;;;20947;6743;117192;-76
2024/01/17 05:58:58;;;;;;;14.57;11.60;;;2.60;54.60;;;;;;20948;6743;118364;-76
2024/01/17 06:01:35;;;;;;;21.80;10.73;;;2.30;54.90;;;;;;20900;6743;117630;-75
2024/01/17 06:04:09;;;;;;;13.07;11.47;;;2.10;55.20;;;;;;20823;6728;119980;-75
2024/01/17 06:06:45;;;;;;;17.03;15.07;;;1.90;55.50;;;;;;20750;6728;306277;-74
2024/01/17 06:09:20;;;;;;;13.90;12.43;;;2.10;55.70;;;;;;20937;6728;117089;-78
2024/01/17 06:11:57;;;;;;;20.10;15.85;;;2.30;55.00;;;;;;20696;6743;336285;-75
2024/01/17 06:14:32;;;;;;;18.00;14.67;;;2.30;55.00;;;;;;20733;6743;119632;-76
2024/01/17 06:17:09;;;;;;;20.20;14.27;;;2.10;55.00;;;;;;20916;6728;280391;-79
2024/01/17 06:19:45;;;;;;;14.70;13.07;;;2.10;54.70;;;;;;20941;6734;117240;-76
2024/01/17 06:22:21;;;;;;;18.30;12.07;;;2.00;55.00;;;;;;21003;6717;117171;-76
2024/01/17 06:24:57;;;;;;;18.50;15.93;;;2.00;55.40;;;;;;20515;6733;278667;-76
2024/01/17 06:27:33;;;;;;;13.63;12.30;;;2.00;55.40;;;;;;20917;6739;117564;-77
2024/01/17 06:30:08;;;;;;;13.40;12.00;;;2.10;55.00;;;;;;20991;6721;117023;-77
2024/01/17 06:32:44;;;;;;;13.27;11.27;;;2.00;55.10;;;;;;20995;6712;117023;-77
2024/01/17 06:35:20;;;;;;;11.93;10.67;;;1.90;55.30;;;;;;20966;6721;117198;-77
2024/01/17 06:37:55;;;;;;;18.93;15.30;;;1.80;55.50;;;;;;20775;6721;275352;-77
2024/01/17 06:40:32;;;;;;;13.80;12.40;;;2.00;55.70;;;;;;20990;6721;118607;-77
2024/01/17 06:43:07;;;;;;;12.50;11.27;;;2.00;55.30;;;;;;20916;6721;117505;-77
2024/01/17 06:45:42;;;;;;;17.57;15.67;;;2.00;55.40;;;;;;20706;6746;278271;-78
2024/01/17 06:48:22;;;;;;;19.07;16.53;;;2.10;55.50;;;;;;20700;6746;297817;-75
2024/01/17 06:50:54;;;;;;;17.13;13.47;;;2.40;55.00;;;;;;20972;6728;117131;-77
2024/01/17 06:53:34;;;;;;;22.30;16.53;;;2.40;54.50;;;;;;20629;6743;318398;-77
2024/01/17 06:56:09;;;;;;;27.87;23.17;;;2.50;54.50;;;;;;20713;6743;276947;-77
2024/01/17 06:58:44;;;;;;;19.50;16.23;;;2.70;54.10;;;;;;20927;6743;118332;-77
2024/01/17 07:01:20;;;;;;;21.50;15.73;;;2.70;54.00;;;;;;20910;6738;140923;-77
2024/01/17 07:03:55;;;;;;;20.70;18.23;;;2.50;54.30;;;;;;20600;6743;337499;-77
2024/01/17 07:06:31;;;;;;;17.10;14.57;;;2.50;54.80;;;;;;20972;6728;117149;-79
2024/01/17 07:09:11;;;;;;;59.03;43.63;;;2.50;54.60;;;;;;20789;6713;308150;-81
2024/01/17 07:11:46;;;;;;;22.60;16.57;;;2.60;55.10;;;;;;20952;6728;118709;-76
2024/01/17 07:14:21;;;;;;;16.23;12.70;;;2.60;55.00;;;;;;20841;6713;117432;-75
2024/01/17 07:16:58;;;;;;;13.37;11.90;;;2.30;55.70;;;;;;20957;6728;117579;-76
2024/01/17 07:19:36;;;;;;;13.87;11.93;;;2.30;55.70;;;;;;20951;6728;120018;-77
2024/01/17 07:22:13;;;;;;;21.10;18.90;;;2.20;56.00;;;;;;20707;6743;307505;-77
2024/01/17 07:24:47;;;;;;;15.67;14.00;;;2.40;57.00;;;;;;20763;6737;119396;-75
2024/01/17 07:27:24;;;;;;;20.83;18.63;;;2.50;56.70;;;;;;20692;6743;337732;-76
2024/01/17 07:29:59;;;;;;;22.40;20.00;;;2.70;57.40;;;;;;20739;6743;335893;-76
2024/01/17 07:32:36;;;;;;;18.20;15.90;;;3.10;56.90;;;;;;20945;6743;117429;-77
2024/01/17 07:35:11;;;;;;;22.75;19.00;;;3.10;56.90;;;;;;20714;6743;277064;-76
2024/01/17 07:37:48;;;;;;;34.87;23.50;;;3.20;57.30;;;;;;20990;6728;119774;-77
2024/01/17 07:40:28;;;;;;;29.07;22.67;;;3.20;56.90;;;;;;20927;6740;119861;-80
2024/01/17 07:43:07;;;;;;;20.07;16.37;;;3.00;57.10;;;;;;20878;6740;119818;-75
2024/01/17 07:45:40;;;;;;;18.43;14.47;;;2.70;57.40;;;;;;20927;6740;117289;-74
2024/01/17 07:48:16;;;;;;;26.00;21.12;;;2.60;57.50;;;;;;20750;6728;335900;-75
2024/01/17 07:50:52;;;;;;;30.55;25.70;;;3.10;58.10;;;;;;20749;6731;276049;-75
2024/01/17 07:53:27;;;;;;;23.57;16.33;;;3.10;58.10;;;;;;20801;6738;120578;-76
2024/01/17 07:56:04;;;;;;;22.43;15.63;;;3.10;57.50;;;;;;20936;6738;120207;-76
2024/01/17 07:58:39;;;;;;;30.07;21.17;;;3.00;57.80;;;;;;20759;6728;276068;-76
2024/01/17 08:01:14;;;;;;;31.30;23.60;;;3.10;58.40;;;;;;20768;6717;277975;-74
2024/01/17 08:03:51;;;;;;;26.13;21.47;;;3.70;58.10;;;;;;20619;6738;289637;-75
2024/01/17 08:06:26;;;;;;;26.48;21.40;;;3.70;58.10;;;;;;20744;6728;314652;-76
2024/01/17 08:09:02;;;;;;;26.12;20.92;;;3.90;57.80;;;;;;20805;6713;334548;-76
2024/01/17 08:11:40;;;;;;;19.47;13.70;;;4.10;57.50;;;;;;21009;6713;117797;-77
2024/01/17 08:14:13;;;;;;;23.60;19.40;;;4.00;57.30;;;;;;20646;6713;287960;-78
2024/01/17 08:16:49;;;;;;;16.33;13.77;;;4.00;57.90;;;;;;20946;6728;117146;-77
2024/01/17 08:19:25;;;;;;;21.63;17.93;;;3.90;57.70;;;;;;20700;6738;465974;-78
2024/01/17 08:22:00;;;;;;;18.17;13.33;;;3.90;58.20;;;;;;20917;6738;117934;-75
2024/01/17 08:24:36;;;;;;;20.98;17.75;;;3.90;58.70;;;;;;20555;6743;337233;-75
2024/01/17 08:27:12;;;;;;;21.85;18.87;;;3.90;58.70;;;;;;20694;6743;277722;-76
2024/01/17 08:29:47;;;;;;;16.53;12.87;;;4.20;58.60;;;;;;20896;6743;119479;-76
2024/01/17 08:32:23;;;;;;;13.77;10.80;;;4.10;58.10;;;;;;20978;6723;117007;-76
2024/01/17 08:35:00;;;;;;;19.43;15.73;;;3.90;59.20;;;;;;20548;6796;303292;-76
2024/01/17 08:37:36;;;;;;;19.10;17.10;;;3.90;59.10;;;;;;20811;6706;287742;-76
2024/01/17 08:40:12;;;;;;;16.87;12.57;;;4.20;59.00;;;;;;21043;6706;117026;-75
2024/01/17 08:42:47;;;;;;;16.83;15.13;;;4.10;58.60;;;;;;20811;6706;277254;-76
2024/01/17 08:45:23;;;;;;;15.93;10.87;;;4.20;59.10;;;;;;21021;6706;117009;-76
2024/01/17 08:47:58;;;;;;;14.17;11.30;;;4.10;58.80;;;;;;21044;6706;119144;-76
2024/01/17 08:50:34;;;;;;;16.23;12.40;;;4.00;59.90;;;;;;21042;6706;117753;-76
2024/01/17 08:53:10;;;;;;;21.90;17.37;;;3.80;59.60;;;;;;20735;6706;322820;-76
2024/01/17 08:55:45;;;;;;;15.67;13.67;;;3.90;60.10;;;;;;21033;6706;119272;-76
2024/01/17 08:58:21;;;;;;;23.10;18.07;;;3.90;59.70;;;;;;20823;6706;281060;-76
2024/01/17 09:00:59;;;;;;;20.70;17.90;;;4.00;60.00;;;;;;20761;6721;277954;-76
2024/01/17 09:03:55;;;;;;;14.03;11.60;;;4.30;59.60;;;;;;20887;6721;120917;-75
2024/01/17 09:06:30;;;;;;;12.77;11.30;;;4.30;59.20;;;;;;21023;6706;117630;-74
2024/01/17 09:09:11;;;;;;;19.50;16.17;;;4.00;59.60;;;;;;20747;6724;304511;-76
2024/01/17 09:11:41;;;;;;;13.03;11.57;;;4.10;60.20;;;;;;21052;6706;117216;-75
2024/01/17 09:14:19;;;;;;;15.93;14.43;;;4.10;59.90;;;;;;20666;6706;307146;-75
2024/01/17 09:16:53;;;;;;;16.50;12.60;;;4.60;60.40;;;;;;20833;6706;305047;-75
2024/01/17 09:19:29;;;;;;;11.20;10.10;;;4.60;60.40;;;;;;21021;6706;117841;-76
2024/01/17 09:22:05;;;;;;;14.05;12.63;;;4.70;60.50;;;;;;20830;6706;334513;-75
2024/01/17 09:24:41;;;;;;;14.05;12.70;;;4.60;60.30;;;;;;20631;6706;287512;-75
2024/01/17 09:27:19;;;;;;;15.82;14.23;;;4.90;60.10;;;;;;20827;6706;306351;-75
2024/01/17 09:29:52;;;;;;;9.43;8.63;;;5.10;59.60;;;;;;21060;6706;69499;-75
2024/01/17 09:32:27;;;;;;;12.25;11.10;;;5.10;59.40;;;;;;20851;6706;333357;-75
2024/01/17 09:35:03;;;;;;;8.70;8.00;;;5.10;60.00;;;;;;20836;6777;68286;-75
2024/01/17 09:37:39;;;;;;;11.70;10.67;;;5.00;59.90;;;;;;20847;6706;318905;-76
2024/01/17 09:40:14;;;;;;;9.90;9.03;;;5.10;60.30;;;;;;21062;6706;72177;-76
2024/01/17 09:42:50;;;;;;;11.02;10.10;;;5.00;60.20;;;;;;20817;6706;333243;-76
2024/01/17 09:45:25;;;;;;;9.10;8.20;;;5.10;60.90;;;;;;21061;6706;67270;-75
2024/01/17 09:48:01;;;;;;;11.90;10.93;;;5.00;60.50;;;;;;20843;6706;334300;-75
2024/01/17 09:50:36;;;;;;;8.30;7.60;;;5.10;61.10;;;;;;21009;6721;70100;-75
2024/01/17 09:53:12;;;;;;;10.90;9.83;;;5.20;60.90;;;;;;20899;6743;72777;-75
2024/01/17 09:55:48;;;;;;;12.98;11.88;;;5.00;61.20;;;;;;20737;6743;276826;-75
2024/01/17 09:58:23;;;;;;;10.23;9.33;;;5.10;61.90;;;;;;20945;6743;68070;-76
2024/01/17 10:00:59;;;;;;;10.48;9.50;;;5.10;61.50;;;;;;20728;6743;300486;-75
2024/01/17 10:03:38;;;;;;;8.13;7.50;;;5.20;61.80;;;;;;20879;6743;70726;-75
2024/01/17 10:06:13;;;;;;;10.00;9.07;;;5.30;61.40;;;;;;20814;6721;275901;-75
2024/01/17 10:08:49;;;;;;;10.03;9.23;;;5.40;61.80;;;;;;20810;6721;305943;-75
2024/01/17 10:11:24;;;;;;;7.03;6.43;;;5.60;61.50;;;;;;20954;6743;67856;-75
2024/01/17 10:14:01;;;;;;;9.00;8.20;;;5.60;61.60;;;;;;20635;6743;308588;-74
2024/01/17 10:16:36;;;;;;;9.00;8.20;;;5.90;61.00;;;;;;20788;6728;306033;-73
2024/01/17 10:19:12;;;;;;;8.37;7.77;;;5.90;60.90;;;;;;20760;6743;275864;-74
2024/01/17 10:21:47;;;;;;;6.30;5.70;;;6.10;60.50;;;;;;20993;6732;67788;-73
2024/01/17 10:24:24;;;;;;;8.67;7.97;;;6.00;60.80;;;;;;20600;6732;280480;-75
2024/01/17 10:27:02;;;;;;;8.77;7.97;;;6.00;60.80;;;;;;20723;6746;276888;-77
2024/01/17 10:29:43;;;;;;;7.20;6.17;;;6.10;60.10;;;;;;20934;6743;67684;-74
2024/01/17 10:32:17;;;;;;;5.77;5.27;;;6.10;60.20;;;;;;20990;6728;67546;-75
2024/01/17 10:34:53;;;;;;;6.63;6.07;;;5.80;60.70;;;;;;20772;6743;68119;-77
2024/01/17 10:37:29;;;;;;;6.57;6.00;;;5.60;61.40;;;;;;21006;6728;67781;-78
2024/01/17 10:40:11;;;;;;;10.57;9.53;;;5.40;62.00;;;;;;20776;6728;305506;-77
2024/01/17 10:42:46;;;;;;;9.80;8.20;;;5.60;62.50;;;;;;20978;6728;68038;-77
2024/01/17 10:45:22;;;;;;;11.37;10.37;;;5.60;62.10;;;;;;20829;6713;320426;-78
2024/01/17 10:47:57;;;;;;;11.00;10.07;;;5.70;62.20;;;;;;20737;6743;277607;-77
2024/01/17 10:50:33;;;;;;;9.47;8.33;;;6.00;61.60;;;;;;20956;6743;69030;-77
2024/01/17 10:53:08;;;;;;;7.60;7.00;;;6.00;61.20;;;;;;20917;6732;68514;-79
2024/01/17 10:55:47;;;;;;;9.33;8.60;;;5.80;61.30;;;;;;20778;6732;323901;-79
2024/01/17 10:58:19;;;;;;;9.75;8.95;;;5.90;62.00;;;;;;20799;6732;304578;-78
2024/01/17 11:00:55;;;;;;;7.07;5.93;;;6.20;61.30;;;;;;20995;6732;73355;-78
2024/01/17 11:03:34;;;;;;;7.60;6.97;;;6.10;61.00;;;;;;20687;6732;305360;-79
2024/01/17 11:06:06;;;;;;;7.20;6.70;;;6.20;61.20;;;;;;20751;6743;334167;-79
2024/01/17 11:08:43;;;;;;;7.40;6.90;;;6.60;60.00;;;;;;20772;6728;340692;-78
2024/01/17 11:11:18;;;;;;;7.57;7.07;;;6.50;59.90;;;;;;20756;6738;305522;-79
2024/01/17 11:13:54;;;;;;;6.27;5.77;;;6.70;59.50;;;;;;20842;6743;68098;-78
2024/01/17 11:16:29;;;;;;;6.40;5.43;;;6.50;59.60;;;;;;20949;6743;68051;-79
2024/01/17 11:19:05;;;;;;;7.90;7.30;;;6.20;60.20;;;;;;20735;6743;277585;-79
2024/01/17 11:21:42;;;;;;;6.03;5.63;;;6.20;60.60;;;;;;20945;6743;67601;-77
2024/01/17 11:24:24;;;;;;;6.27;5.67;;;6.10;60.70;;;;;;20838;6743;70479;-78
2024/01/17 11:27:00;;;;;;;5.90;5.40;;;6.00;61.50;;;;;;20944;6743;69507;-76
2024/01/17 11:30:05;;;;;;;8.77;8.10;;;5.80;62.10;;;;;;20773;6728;335135;-79
2024/01/17 11:32:41;;;;;;;9.47;8.67;;;5.90;62.60;;;;;;20785;6723;277645;-78
2024/01/17 11:35:39;;;;;;;8.63;7.83;;;6.30;61.70;;;;;;20798;6723;305657;-77
2024/01/17 11:38:24;;;;;;;6.93;6.43;;;6.60;61.40;;;;;;20797;6723;306542;-77
2024/01/17 11:41:06;;;;;;;4.30;4.00;;;6.80;61.10;;;;;;21007;6723;68919;-77
2024/01/17 11:43:41;;;;;;;4.30;4.00;;;6.60;62.50;;;;;;20899;6727;67425;-77
2024/01/17 11:46:15;;;;;;;6.18;5.78;;;6.60;61.80;;;;;;20779;6730;276751;-77
2024/01/17 11:48:50;;;;;;;5.87;5.53;;;6.70;62.60;;;;;;20816;6713;277108;-75
2024/01/17 11:51:27;;;;;;;4.37;4.10;;;7.00;62.30;;;;;;21030;6713;67944;-75
2024/01/17 11:54:03;;;;;;;5.03;4.63;;;7.00;62.50;;;;;;20887;6713;69144;-76
2024/01/17 11:56:38;;;;;;;4.20;3.80;;;6.90;62.20;;;;;;21038;6713;72188;-76
2024/01/17 11:59:14;;;;;;;4.50;4.10;;;6.70;62.90;;;;;;20911;6743;73660;-77
2024/01/17 12:01:51;;;;;;;3.33;3.07;;;6.50;63.30;;;;;;20951;6743;67450;-77
2024/01/17 12:04:25;;;;;;;3.95;3.65;;;6.50;63.80;;;;;;20568;6746;309535;-78
2024/01/17 12:07:02;;;;;;;3.70;3.50;;;6.60;64.10;;;;;;20729;6743;306706;-77
2024/01/17 12:09:36;;;;;;;3.50;3.30;;;7.00;63.40;;;;;;20723;6743;277457;-77
2024/01/17 12:12:12;;;;;;;2.80;2.60;;;7.30;62.40;;;;;;20947;6743;67784;-77
2024/01/17 12:14:48;;;;;;;3.80;3.50;;;7.20;61.80;;;;;;20524;6746;312514;-77
2024/01/17 12:17:23;;;;;;;3.20;3.00;;;7.20;61.90;;;;;;20971;6734;67208;-77
2024/01/17 12:19:59;;;;;;;3.47;3.23;;;7.20;61.80;;;;;;20937;6743;67517;-78
2024/01/17 12:22:34;;;;;;;4.63;4.33;;;6.90;62.20;;;;;;20935;6743;67377;-77
2024/01/17 12:25:10;;;;;;;4.60;4.20;;;6.70;62.70;;;;;;20945;6743;69120;-77
2024/01/17 12:27:56;;;;;;;4.77;4.40;;;6.30;63.90;;;;;;20937;6743;68129;-77
2024/01/17 12:30:30;;;;;;;6.32;5.93;;;6.50;64.20;;;;;;20689;6744;306399;-79
2024/01/17 12:33:05;;;;;;;5.97;5.67;;;6.50;64.10;;;;;;20681;6744;280019;-76
2024/01/17 12:35:42;;;;;;;5.03;4.73;;;6.80;63.40;;;;;;20934;6740;67072;-76
2024/01/17 12:38:18;;;;;;;5.00;4.70;;;7.00;63.20;;;;;;20728;6740;309828;-77
2024/01/17 12:40:54;;;;;;;4.20;3.90;;;6.90;63.10;;;;;;20932;6744;67409;-77
2024/01/17 12:43:29;;;;;;;3.67;3.47;;;6.90;62.80;;;;;;20881;6739;67956;-76
2024/01/17 12:46:06;;;;;;;3.50;3.30;;;6.80;63.30;;;;;;20967;6728;67485;-77
2024/01/17 12:48:56;;;;;;;4.20;4.00;;;6.70;64.40;;;;;;20795;6723;278841;-76
2024/01/17 12:51:34;;;;;;;4.73;4.43;;;6.70;64.40;;;;;;21013;6723;68502;-76
2024/01/17 12:54:09;;;;;;;3.10;2.87;;;6.70;64.60;;;;;;20838;6738;69227;-76
2024/01/17 12:56:44;;;;;;;2.93;2.80;;;6.70;64.60;;;;;;21000;6722;67984;-76
2024/01/17 12:59:20;;;;;;;3.13;3.03;;;6.60;65.20;;;;;;20781;6727;308205;-77
2024/01/17 13:01:59;;;;;;;3.57;3.37;;;7.30;66.00;;;;;;20780;6727;334739;-76
2024/01/17 13:04:35;;;;;;;4.03;3.10;;;7.20;65.90;;;;;;20836;6728;69409;-78
2024/01/17 13:07:10;;;;;;;3.13;3.03;;;7.40;65.20;;;;;;20976;6728;119242;-77
2024/01/17 13:09:46;;;;;;;3.47;3.27;;;7.40;65.50;;;;;;20731;6788;336446;-76
2024/01/17 13:12:23;;;;;;;3.80;3.60;;;7.60;66.20;;;;;;20756;6728;305441;-76
2024/01/17 13:14:58;;;;;;;3.53;3.33;;;8.00;65.20;;;;;;20687;6814;117653;-77
2024/01/17 13:17:35;;;;;;;4.78;4.47;;;8.00;64.30;;;;;;20698;6743;335934;-77